sensor_id;sensor_type;location;lat;lon;timestamp;temperature;humidity
5086;DHT22;4715;51.660;7.082;2023-02-28T00:02:11;1.80;99.90
5086;DHT22;4715;51.660;7.082;2023-02-28T00:04:34;1.80;99.90
5086;DHT22;4715;51.660;7.082;2023-02-28T00:06:58;1.70;99.90
5086;DHT22;4715;51.660;7.082;2023-02-28T00:09:20;1.70;99.90
5086;DHT22;4715;51.660;7.082;2023-02-28T00:11:41;1.70;99.90
5086;DHT22;4715;51.660;7.082;2023-02-28T00:14:06;1.70;99.90
5086;DHT22;4715;51.660;7.082;2023-02-28T00:16:27;1.60;99.90
5086;DHT22;4715;51.660;7.082;2023-02-28T00:18:50;1.60;99.90
5086;DHT22;4715;51.660;7.082;2023-02-28T00:21:12;1.60;99.90
5086;DHT22;4715;51.660;7.082;2023-02-28T00:23:35;1.60;99.90
5086;DHT22;4715;51.660;7.082;2023-02-28T00:25:57;1.60;99.90
5086;DHT22;4715;51.660;7.082;2023-02-28T00:28:19;1.70;99.90
5086;DHT22;4715;51.660;7.082;2023-02-28T00:30:41;1.70;99.90
5086;DHT22;4715;51.660;7.082;2023-02-28T00:33:02;1.70;99.90
5086;DHT22;4715;51.660;7.082;2023-02-28T00:35:24;1.60;99.90
5086;DHT22;4715;51.660;7.082;2023-02-28T00:37:47;1.60;99.90
5086;DHT22;4715;51.660;7.082;2023-02-28T00:40:11;1.60;99.90
5086;DHT22;4715;51.660;7.082;2023-02-28T00:42:33;1.60;99.90
5086;DHT22;4715;51.660;7.082;2023-02-28T00:44:55;1.60;99.90
5086;DHT22;4715;51.660;7.082;2023-02-28T00:47:17;1.60;99.90
5086;DHT22;4715;51.660;7.082;2023-02-28T00:49:39;1.60;99.90
5086;DHT22;4715;51.660;7.082;2023-02-28T00:52:01;1.60;99.90
5086;DHT22;4715;51.660;7.082;2023-02-28T00:54:23;1.60;99.90
5086;DHT22;4715;51.660;7.082;2023-02-28T00:56:47;1.60;99.90
5086;DHT22;4715;51.660;7.082;2023-02-28T00:59:09;1.60;99.90
5086;DHT22;4715;51.660;7.082;2023-02-28T01:01:31;1.70;99.90
5086;DHT22;4715;51.660;7.082;2023-02-28T01:03:55;1.70;99.90
5086;DHT22;4715;51.660;7.082;2023-02-28T01:06:16;1.70;99.90
5086;DHT22;4715;51.660;7.082;2023-02-28T01:08:39;1.70;99.90
5086;DHT22;4715;51.660;7.082;2023-02-28T01:11:07;1.80;99.90
5086;DHT22;4715;51.660;7.082;2023-02-28T01:13:31;1.80;99.90
5086;DHT22;4715;51.660;7.082;2023-02-28T01:15:55;1.80;99.90
5086;DHT22;4715;51.660;7.082;2023-02-28T01:18:17;1.80;99.90
5086;DHT22;4715;51.660;7.082;2023-02-28T01:20:39;1.80;99.90
5086;DHT22;4715;51.660;7.082;2023-02-28T01:23:01;1.80;99.90
5086;DHT22;4715;51.660;7.082;2023-02-28T01:25:23;1.80;99.90
5086;DHT22;4715;51.660;7.082;2023-02-28T01:27:44;1.80;99.90
5086;DHT22;4715;51.660;7.082;2023-02-28T01:30:10;1.80;99.90
5086;DHT22;4715;51.660;7.082;2023-02-28T01:32:32;1.70;99.90
5086;DHT22;4715;51.660;7.082;2023-02-28T01:34:54;1.70;99.90
5086;DHT22;4715;51.660;7.082;2023-02-28T01:37:16;1.70;99.90
5086;DHT22;4715;51.660;7.082;2023-02-28T01:39:38;1.60;99.90
5086;DHT22;4715;51.660;7.082;2023-02-28T01:42:00;1.60;99.90
5086;DHT22;4715;51.660;7.082;2023-02-28T01:47:40;1.60;99.90
5086;DHT22;4715;51.660;7.082;2023-02-28T01:50:06;1.50;99.90
5086;DHT22;4715;51.660;7.082;2023-02-28T01:52:29;1.50;99.90
5086;DHT22;4715;51.660;7.082;2023-02-28T01:54:54;1.50;99.90
5086;DHT22;4715;51.660;7.082;2023-02-28T01:57:20;1.40;99.90
5086;DHT22;4715;51.660;7.082;2023-02-28T01:59:49;1.40;99.90
5086;DHT22;4715;51.660;7.082;2023-02-28T02:02:14;1.40;99.90
5086;DHT22;4715;51.660;7.082;2023-02-28T02:04:44;1.40;99.90
5086;DHT22;4715;51.660;7.082;2023-02-28T02:07:08;1.30;99.90
5086;DHT22;4715;51.660;7.082;2023-02-28T02:09:30;1.30;99.90
5086;DHT22;4715;51.660;7.082;2023-02-28T02:11:54;1.30;99.90
5086;DHT22;4715;51.660;7.082;2023-02-28T02:14:40;1.30;99.90
5086;DHT22;4715;51.660;7.082;2023-02-28T02:17:11;1.30;99.90
5086;DHT22;4715;51.660;7.082;2023-02-28T02:22:55;1.30;99.90
5086;DHT22;4715;51.660;7.082;2023-02-28T02:25:28;1.20;99.90
5086;DHT22;4715;51.660;7.082;2023-02-28T02:28:04;1.10;99.90
5086;DHT22;4715;51.660;7.082;2023-02-28T02:30:58;1.10;99.90
5086;DHT22;4715;51.660;7.082;2023-02-28T02:33:32;1.10;99.90
5086;DHT22;4715;51.660;7.082;2023-02-28T02:36:04;1.00;99.90
5086;DHT22;4715;51.660;7.082;2023-02-28T02:38:32;1.00;99.90
5086;DHT22;4715;51.660;7.082;2023-02-28T02:41:01;1.00;99.90
5086;DHT22;4715;51.660;7.082;2023-02-28T02:43:32;1.00;99.90
5086;DHT22;4715;51.660;7.082;2023-02-28T02:45:57;1.00;99.90
5086;DHT22;4715;51.660;7.082;2023-02-28T02:48:24;0.90;99.90
5086;DHT22;4715;51.660;7.082;2023-02-28T02:50:49;1.00;99.90
5086;DHT22;4715;51.660;7.082;2023-02-28T02:53:17;1.00;99.90
5086;DHT22;4715;51.660;7.082;2023-02-28T02:55:41;0.90;99.90
5086;DHT22;4715;51.660;7.082;2023-02-28T02:58:08;1.00;99.90
5086;DHT22;4715;51.660;7.082;2023-02-28T03:00:33;1.00;99.90
5086;DHT22;4715;51.660;7.082;2023-02-28T03:02:56;0.90;99.90
5086;DHT22;4715;51.660;7.082;2023-02-28T03:05:24;0.90;99.90
5086;DHT22;4715;51.660;7.082;2023-02-28T03:07:47;0.80;99.90
5086;DHT22;4715;51.660;7.082;2023-02-28T03:10:35;0.80;99.90
5086;DHT22;4715;51.660;7.082;2023-02-28T03:13:10;0.80;99.90
5086;DHT22;4715;51.660;7.082;2023-02-28T03:15:42;0.70;99.90
5086;DHT22;4715;51.660;7.082;2023-02-28T03:18:12;0.70;99.90
5086;DHT22;4715;51.660;7.082;2023-02-28T03:20:42;0.60;99.90
5086;DHT22;4715;51.660;7.082;2023-02-28T03:23:14;0.60;99.90
5086;DHT22;4715;51.660;7.082;2023-02-28T03:25:45;0.60;99.90
5086;DHT22;4715;51.660;7.082;2023-02-28T03:28:14;0.60;99.90
5086;DHT22;4715;51.660;7.082;2023-02-28T03:30:42;0.60;99.90
5086;DHT22;4715;51.660;7.082;2023-02-28T03:33:10;0.50;99.90
5086;DHT22;4715;51.660;7.082;2023-02-28T03:35:36;0.50;99.90
5086;DHT22;4715;51.660;7.082;2023-02-28T03:38:05;0.50;99.90
5086;DHT22;4715;51.660;7.082;2023-02-28T03:40:30;0.50;99.90
5086;DHT22;4715;51.660;7.082;2023-02-28T03:42:59;0.50;99.90
5086;DHT22;4715;51.660;7.082;2023-02-28T03:45:26;0.50;99.90
5086;DHT22;4715;51.660;7.082;2023-02-28T03:47:53;0.40;99.90
5086;DHT22;4715;51.660;7.082;2023-02-28T03:50:19;0.40;99.90
5086;DHT22;4715;51.660;7.082;2023-02-28T03:52:45;0.40;99.90
5086;DHT22;4715;51.660;7.082;2023-02-28T03:55:11;0.40;99.90
5086;DHT22;4715;51.660;7.082;2023-02-28T03:57:37;0.40;99.90
5086;DHT22;4715;51.660;7.082;2023-02-28T04:00:07;0.40;99.90
5086;DHT22;4715;51.660;7.082;2023-02-28T04:02:31;0.40;99.90
5086;DHT22;4715;51.660;7.082;2023-02-28T04:04:53;0.40;99.90
5086;DHT22;4715;51.660;7.082;2023-02-28T04:07:16;0.40;99.90
5086;DHT22;4715;51.660;7.082;2023-02-28T04:09:38;0.40;99.90
5086;DHT22;4715;51.660;7.082;2023-02-28T04:12:03;0.40;99.90
5086;DHT22;4715;51.660;7.082;2023-02-28T04:14:25;0.40;99.90
5086;DHT22;4715;51.660;7.082;2023-02-28T04:16:49;0.40;99.90
5086;DHT22;4715;51.660;7.082;2023-02-28T04:19:12;0.40;99.90
5086;DHT22;4715;51.660;7.082;2023-02-28T04:21:36;0.50;99.90
5086;DHT22;4715;51.660;7.082;2023-02-28T04:23:59;0.50;99.90
5086;DHT22;4715;51.660;7.082;2023-02-28T04:26:21;0.40;99.90
5086;DHT22;4715;51.660;7.082;2023-02-28T04:28:43;0.40;99.90
5086;DHT22;4715;51.660;7.082;2023-02-28T04:31:05;0.40;99.90
5086;DHT22;4715;51.660;7.082;2023-02-28T04:33:29;0.40;99.90
5086;DHT22;4715;51.660;7.082;2023-02-28T04:35:58;0.30;99.90
5086;DHT22;4715;51.660;7.082;2023-02-28T04:38:20;0.30;99.90
5086;DHT22;4715;51.660;7.082;2023-02-28T04:40:42;0.30;99.90
5086;DHT22;4715;51.660;7.082;2023-02-28T04:43:04;0.20;99.90
5086;DHT22;4715;51.660;7.082;2023-02-28T04:45:26;0.20;99.90
5086;DHT22;4715;51.660;7.082;2023-02-28T04:47:50;0.20;99.90
5086;DHT22;4715;51.660;7.082;2023-02-28T04:50:13;0.20;99.90
5086;DHT22;4715;51.660;7.082;2023-02-28T04:52:35;0.30;99.90
5086;DHT22;4715;51.660;7.082;2023-02-28T04:54:57;0.30;99.90
5086;DHT22;4715;51.660;7.082;2023-02-28T04:57:19;0.30;99.90
5086;DHT22;4715;51.660;7.082;2023-02-28T04:59:40;0.30;99.90
5086;DHT22;4715;51.660;7.082;2023-02-28T05:02:05;0.40;99.90
5086;DHT22;4715;51.660;7.082;2023-02-28T05:04:27;0.30;99.90
5086;DHT22;4715;51.660;7.082;2023-02-28T05:06:51;0.30;99.90
5086;DHT22;4715;51.660;7.082;2023-02-28T05:09:13;0.30;99.90
5086;DHT22;4715;51.660;7.082;2023-02-28T05:11:35;0.30;99.90
5086;DHT22;4715;51.660;7.082;2023-02-28T05:13:57;0.30;99.90
5086;DHT22;4715;51.660;7.082;2023-02-28T05:16:19;0.30;99.90
5086;DHT22;4715;51.660;7.082;2023-02-28T05:18:43;0.30;99.90
5086;DHT22;4715;51.660;7.082;2023-02-28T05:21:05;0.20;99.90
5086;DHT22;4715;51.660;7.082;2023-02-28T05:23:29;0.20;99.90
5086;DHT22;4715;51.660;7.082;2023-02-28T05:25:52;0.20;99.90
5086;DHT22;4715;51.660;7.082;2023-02-28T05:28:14;0.10;99.90
5086;DHT22;4715;51.660;7.082;2023-02-28T05:30:37;0.10;99.90
5086;DHT22;4715;51.660;7.082;2023-02-28T05:32:59;0.10;99.90
5086;DHT22;4715;51.660;7.082;2023-02-28T05:35:21;0.10;99.90
5086;DHT22;4715;51.660;7.082;2023-02-28T05:37:43;0.10;99.90
5086;DHT22;4715;51.660;7.082;2023-02-28T05:40:07;0.10;99.90
5086;DHT22;4715;51.660;7.082;2023-02-28T05:42:30;0.00;99.90
5086;DHT22;4715;51.660;7.082;2023-02-28T05:44:52;0.00;99.90
5086;DHT22;4715;51.660;7.082;2023-02-28T05:47:14;0.00;99.90
5086;DHT22;4715;51.660;7.082;2023-02-28T05:49:37;0.00;99.90
5086;DHT22;4715;51.660;7.082;2023-02-28T05:51:59;0.00;99.90
5086;DHT22;4715;51.660;7.082;2023-02-28T05:54:21;0.00;99.90
5086;DHT22;4715;51.660;7.082;2023-02-28T05:56:44;0.00;99.90
5086;DHT22;4715;51.660;7.082;2023-02-28T05:59:06;0.00;99.90
5086;DHT22;4715;51.660;7.082;2023-02-28T06:01:33;0.00;99.90
5086;DHT22;4715;51.660;7.082;2023-02-28T06:03:55;0.00;99.90
5086;DHT22;4715;51.660;7.082;2023-02-28T06:06:19;0.00;99.90
5086;DHT22;4715;51.660;7.082;2023-02-28T06:08:41;0.00;99.90
5086;DHT22;4715;51.660;7.082;2023-02-28T06:11:04;0.00;99.90
5086;DHT22;4715;51.660;7.082;2023-02-28T06:13:28;0.00;99.90
5086;DHT22;4715;51.660;7.082;2023-02-28T06:15:50;0.00;99.90
5086;DHT22;4715;51.660;7.082;2023-02-28T06:18:12;0.00;99.90
5086;DHT22;4715;51.660;7.082;2023-02-28T06:20:34;-0.10;99.90
5086;DHT22;4715;51.660;7.082;2023-02-28T06:22:56;0.00;99.90
5086;DHT22;4715;51.660;7.082;2023-02-28T06:25:19;-0.10;99.90
5086;DHT22;4715;51.660;7.082;2023-02-28T06:27:41;-0.10;99.90
5086;DHT22;4715;51.660;7.082;2023-02-28T06:30:09;-0.10;99.90
5086;DHT22;4715;51.660;7.082;2023-02-28T06:32:31;0.00;99.90
5086;DHT22;4715;51.660;7.082;2023-02-28T06:34:53;-0.10;99.90
5086;DHT22;4715;51.660;7.082;2023-02-28T06:37:14;0.00;99.90
5086;DHT22;4715;51.660;7.082;2023-02-28T06:39:36;0.00;99.90
5086;DHT22;4715;51.660;7.082;2023-02-28T06:41:58;0.00;99.90
5086;DHT22;4715;51.660;7.082;2023-02-28T06:44:21;-0.10;99.90
5086;DHT22;4715;51.660;7.082;2023-02-28T06:46:45;0.00;99.90
5086;DHT22;4715;51.660;7.082;2023-02-28T06:49:07;0.00;99.90
5086;DHT22;4715;51.660;7.082;2023-02-28T06:51:30;0.00;99.90
5086;DHT22;4715;51.660;7.082;2023-02-28T06:53:51;0.00;99.90
5086;DHT22;4715;51.660;7.082;2023-02-28T06:56:14;0.00;99.90
5086;DHT22;4715;51.660;7.082;2023-02-28T06:58:37;0.00;99.90
5086;DHT22;4715;51.660;7.082;2023-02-28T07:01:02;0.10;99.90
5086;DHT22;4715;51.660;7.082;2023-02-28T07:03:26;0.10;99.90
5086;DHT22;4715;51.660;7.082;2023-02-28T07:05:48;0.20;99.90
5086;DHT22;4715;51.660;7.082;2023-02-28T07:08:10;0.20;99.90
5086;DHT22;4715;51.660;7.082;2023-02-28T07:10:32;0.30;99.90
5086;DHT22;4715;51.660;7.082;2023-02-28T07:12:54;0.40;99.90
5086;DHT22;4715;51.660;7.082;2023-02-28T07:15:16;0.40;99.90
5086;DHT22;4715;51.660;7.082;2023-02-28T07:17:38;0.50;99.90
5086;DHT22;4715;51.660;7.082;2023-02-28T07:20:01;0.60;99.90
5086;DHT22;4715;51.660;7.082;2023-02-28T07:22:25;0.70;99.90
5086;DHT22;4715;51.660;7.082;2023-02-28T07:24:46;0.80;99.90
5086;DHT22;4715;51.660;7.082;2023-02-28T07:27:08;0.90;99.90
5086;DHT22;4715;51.660;7.082;2023-02-28T07:29:30;0.90;99.90
5086;DHT22;4715;51.660;7.082;2023-02-28T07:31:52;1.00;99.90
5086;DHT22;4715;51.660;7.082;2023-02-28T07:34:14;1.10;99.90
5086;DHT22;4715;51.660;7.082;2023-02-28T07:36:37;1.20;99.90
5086;DHT22;4715;51.660;7.082;2023-02-28T07:39:00;1.40;99.90
5086;DHT22;4715;51.660;7.082;2023-02-28T07:41:22;1.40;99.90
5086;DHT22;4715;51.660;7.082;2023-02-28T07:43:47;1.50;99.90
5086;DHT22;4715;51.660;7.082;2023-02-28T07:46:11;1.60;99.90
5086;DHT22;4715;51.660;7.082;2023-02-28T07:48:35;1.70;99.90
5086;DHT22;4715;51.660;7.082;2023-02-28T07:50:57;1.70;99.90
5086;DHT22;4715;51.660;7.082;2023-02-28T07:53:21;1.80;99.90
5086;DHT22;4715;51.660;7.082;2023-02-28T07:55:43;1.70;99.90
5086;DHT22;4715;51.660;7.082;2023-02-28T07:58:05;1.80;99.90
5086;DHT22;4715;51.660;7.082;2023-02-28T08:00:27;1.90;99.90
5086;DHT22;4715;51.660;7.082;2023-02-28T08:02:52;1.90;99.90
5086;DHT22;4715;51.660;7.082;2023-02-28T08:05:15;1.90;99.90
5086;DHT22;4715;51.660;7.082;2023-02-28T08:07:37;2.00;99.90
5086;DHT22;4715;51.660;7.082;2023-02-28T08:10:00;2.10;99.90
5086;DHT22;4715;51.660;7.082;2023-02-28T08:12:22;2.10;99.90
5086;DHT22;4715;51.660;7.082;2023-02-28T08:14:44;2.10;99.90
5086;DHT22;4715;51.660;7.082;2023-02-28T08:17:06;2.20;99.90
5086;DHT22;4715;51.660;7.082;2023-02-28T08:19:28;2.20;99.90
5086;DHT22;4715;51.660;7.082;2023-02-28T08:21:50;2.30;99.90
5086;DHT22;4715;51.660;7.082;2023-02-28T08:24:12;2.40;99.90
5086;DHT22;4715;51.660;7.082;2023-02-28T08:26:35;2.50;99.90
5086;DHT22;4715;51.660;7.082;2023-02-28T08:28:57;2.50;99.90
5086;DHT22;4715;51.660;7.082;2023-02-28T08:31:19;2.60;99.90
5086;DHT22;4715;51.660;7.082;2023-02-28T08:33:41;2.70;99.90
5086;DHT22;4715;51.660;7.082;2023-02-28T08:36:06;2.80;99.90
5086;DHT22;4715;51.660;7.082;2023-02-28T08:38:28;2.80;99.90
5086;DHT22;4715;51.660;7.082;2023-02-28T08:40:50;2.90;99.90
5086;DHT22;4715;51.660;7.082;2023-02-28T08:43:13;3.00;99.90
5086;DHT22;4715;51.660;7.082;2023-02-28T08:45:35;3.10;99.90
5086;DHT22;4715;51.660;7.082;2023-02-28T08:47:57;3.10;99.90
5086;DHT22;4715;51.660;7.082;2023-02-28T08:50:19;3.20;99.90
5086;DHT22;4715;51.660;7.082;2023-02-28T08:52:42;3.20;99.90
5086;DHT22;4715;51.660;7.082;2023-02-28T08:55:04;3.30;99.90
5086;DHT22;4715;51.660;7.082;2023-02-28T08:57:26;3.30;99.90
5086;DHT22;4715;51.660;7.082;2023-02-28T08:59:52;3.30;99.90
5086;DHT22;4715;51.660;7.082;2023-02-28T09:02:14;3.40;99.90
5086;DHT22;4715;51.660;7.082;2023-02-28T09:04:36;3.40;99.90
5086;DHT22;4715;51.660;7.082;2023-02-28T09:06:58;3.50;99.90
5086;DHT22;4715;51.660;7.082;2023-02-28T09:09:19;3.50;99.90
5086;DHT22;4715;51.660;7.082;2023-02-28T09:11:41;3.60;99.90
5086;DHT22;4715;51.660;7.082;2023-02-28T09:14:04;3.60;99.90
5086;DHT22;4715;51.660;7.082;2023-02-28T09:16:27;3.70;99.90
5086;DHT22;4715;51.660;7.082;2023-02-28T09:18:48;3.70;99.90
5086;DHT22;4715;51.660;7.082;2023-02-28T09:21:12;3.80;99.90
5086;DHT22;4715;51.660;7.082;2023-02-28T09:23:35;3.80;99.90
5086;DHT22;4715;51.660;7.082;2023-02-28T09:25:58;3.90;99.90
5086;DHT22;4715;51.660;7.082;2023-02-28T09:28:21;3.90;99.90
5086;DHT22;4715;51.660;7.082;2023-02-28T09:30:45;4.00;99.90
5086;DHT22;4715;51.660;7.082;2023-02-28T09:33:08;4.00;99.90
5086;DHT22;4715;51.660;7.082;2023-02-28T09:35:30;4.10;99.90
5086;DHT22;4715;51.660;7.082;2023-02-28T09:37:52;4.20;99.90
5086;DHT22;4715;51.660;7.082;2023-02-28T09:40:15;4.30;99.90
5086;DHT22;4715;51.660;7.082;2023-02-28T09:42:38;4.40;99.90
5086;DHT22;4715;51.660;7.082;2023-02-28T09:45:10;4.40;99.90
5086;DHT22;4715;51.660;7.082;2023-02-28T09:47:38;4.60;99.90
5086;DHT22;4715;51.660;7.082;2023-02-28T09:50:16;4.70;99.90
5086;DHT22;4715;51.660;7.082;2023-02-28T09:52:41;4.80;99.90
5086;DHT22;4715;51.660;7.082;2023-02-28T09:55:20;4.90;99.90
5086;DHT22;4715;51.660;7.082;2023-02-28T09:57:44;5.00;99.90
5086;DHT22;4715;51.660;7.082;2023-02-28T10:00:13;5.00;99.90
5086;DHT22;4715;51.660;7.082;2023-02-28T10:03:04;5.20;99.90
5086;DHT22;4715;51.660;7.082;2023-02-28T10:05:36;5.40;99.90
5086;DHT22;4715;51.660;7.082;2023-02-28T10:08:08;5.50;99.90
5086;DHT22;4715;51.660;7.082;2023-02-28T10:10:36;5.60;99.90
5086;DHT22;4715;51.660;7.082;2023-02-28T10:13:03;5.80;99.90
5086;DHT22;4715;51.660;7.082;2023-02-28T10:15:30;5.80;99.90
5086;DHT22;4715;51.660;7.082;2023-02-28T10:18:02;5.90;99.90
5086;DHT22;4715;51.660;7.082;2023-02-28T10:20:35;6.00;99.90
5086;DHT22;4715;51.660;7.082;2023-02-28T10:23:03;6.00;99.90
5086;DHT22;4715;51.660;7.082;2023-02-28T10:25:29;6.00;99.90
5086;DHT22;4715;51.660;7.082;2023-02-28T10:27:54;6.10;99.90
5086;DHT22;4715;51.660;7.082;2023-02-28T10:30:20;6.10;99.90
5086;DHT22;4715;51.660;7.082;2023-02-28T10:32:49;6.20;99.90
5086;DHT22;4715;51.660;7.082;2023-02-28T10:35:16;6.30;99.90
5086;DHT22;4715;51.660;7.082;2023-02-28T10:37:48;6.40;99.90
5086;DHT22;4715;51.660;7.082;2023-02-28T10:40:29;6.30;99.90
5086;DHT22;4715;51.660;7.082;2023-02-28T10:42:57;6.40;99.90
5086;DHT22;4715;51.660;7.082;2023-02-28T10:45:20;6.50;99.90
5086;DHT22;4715;51.660;7.082;2023-02-28T10:47:53;6.50;99.90
5086;DHT22;4715;51.660;7.082;2023-02-28T10:50:31;6.60;99.90
5086;DHT22;4715;51.660;7.082;2023-02-28T10:53:13;6.70;99.90
5086;DHT22;4715;51.660;7.082;2023-02-28T10:55:38;6.80;99.90
5086;DHT22;4715;51.660;7.082;2023-02-28T10:58:01;6.90;99.90
5086;DHT22;4715;51.660;7.082;2023-02-28T11:00:25;7.00;99.90
5086;DHT22;4715;51.660;7.082;2023-02-28T11:02:53;7.00;99.90
5086;DHT22;4715;51.660;7.082;2023-02-28T11:05:29;6.90;99.90
5086;DHT22;4715;51.660;7.082;2023-02-28T11:07:59;6.90;99.90
5086;DHT22;4715;51.660;7.082;2023-02-28T11:10:29;6.80;99.90
5086;DHT22;4715;51.660;7.082;2023-02-28T11:12:55;6.60;99.10
5086;DHT22;4715;51.660;7.082;2023-02-28T11:15:22;6.40;99.60
5086;DHT22;4715;51.660;7.082;2023-02-28T11:17:53;6.30;99.60
5086;DHT22;4715;51.660;7.082;2023-02-28T11:20:21;6.30;99.90
5086;DHT22;4715;51.660;7.082;2023-02-28T11:22:45;6.20;99.90
5086;DHT22;4715;51.660;7.082;2023-02-28T11:25:16;6.20;99.70
5086;DHT22;4715;51.660;7.082;2023-02-28T11:27:47;6.40;99.90
5086;DHT22;4715;51.660;7.082;2023-02-28T11:30:27;6.60;99.90
5086;DHT22;4715;51.660;7.082;2023-02-28T11:32:49;6.80;99.80
5086;DHT22;4715;51.660;7.082;2023-02-28T11:35:17;7.00;99.70
5086;DHT22;4715;51.660;7.082;2023-02-28T11:37:41;7.30;99.10
5086;DHT22;4715;51.660;7.082;2023-02-28T11:40:12;7.40;98.60
5086;DHT22;4715;51.660;7.082;2023-02-28T11:42:53;7.50;98.20
5086;DHT22;4715;51.660;7.082;2023-02-28T11:45:26;7.70;98.20
5086;DHT22;4715;51.660;7.082;2023-02-28T11:47:59;7.80;97.90
5086;DHT22;4715;51.660;7.082;2023-02-28T11:50:39;7.90;97.70
5086;DHT22;4715;51.660;7.082;2023-02-28T11:53:18;8.00;96.50
5086;DHT22;4715;51.660;7.082;2023-02-28T11:55:52;8.00;95.80
5086;DHT22;4715;51.660;7.082;2023-02-28T11:58:31;7.80;94.70
5086;DHT22;4715;51.660;7.082;2023-02-28T12:01:13;7.70;95.00
5086;DHT22;4715;51.660;7.082;2023-02-28T12:03:45;7.70;95.50
5086;DHT22;4715;51.660;7.082;2023-02-28T12:06:20;7.80;95.30
5086;DHT22;4715;51.660;7.082;2023-02-28T12:11:51;7.90;94.90
5086;DHT22;4715;51.660;7.082;2023-02-28T12:14:53;8.00;94.90
5086;DHT22;4715;51.660;7.082;2023-02-28T12:17:37;8.10;94.70
5086;DHT22;4715;51.660;7.082;2023-02-28T12:20:13;8.20;95.00
5086;DHT22;4715;51.660;7.082;2023-02-28T12:22:43;8.30;94.70
5086;DHT22;4715;51.660;7.082;2023-02-28T12:25:39;8.40;94.80
5086;DHT22;4715;51.660;7.082;2023-02-28T12:28:10;8.50;94.80
5086;DHT22;4715;51.660;7.082;2023-02-28T12:30:35;8.60;94.80
5086;DHT22;4715;51.660;7.082;2023-02-28T12:33:04;8.70;94.70
5086;DHT22;4715;51.660;7.082;2023-02-28T12:35:32;8.80;94.60
5086;DHT22;4715;51.660;7.082;2023-02-28T12:37:57;8.90;94.40
5086;DHT22;4715;51.660;7.082;2023-02-28T12:40:23;9.00;94.30
5086;DHT22;4715;51.660;7.082;2023-02-28T12:42:47;8.90;94.00
5086;DHT22;4715;51.660;7.082;2023-02-28T12:45:17;9.00;94.10
5086;DHT22;4715;51.660;7.082;2023-02-28T12:47:42;9.00;94.20
5086;DHT22;4715;51.660;7.082;2023-02-28T12:50:07;9.10;94.20
5086;DHT22;4715;51.660;7.082;2023-02-28T12:52:40;9.10;94.10
5086;DHT22;4715;51.660;7.082;2023-02-28T12:55:08;9.10;93.60
5086;DHT22;4715;51.660;7.082;2023-02-28T12:57:38;9.00;93.40
5086;DHT22;4715;51.660;7.082;2023-02-28T13:00:10;8.90;93.30
5086;DHT22;4715;51.660;7.082;2023-02-28T13:03:00;8.90;92.80
5086;DHT22;4715;51.660;7.082;2023-02-28T13:05:38;8.60;92.30
5086;DHT22;4715;51.660;7.082;2023-02-28T13:11:04;8.20;93.10
5086;DHT22;4715;51.660;7.082;2023-02-28T13:13:29;8.30;93.00
5086;DHT22;4715;51.660;7.082;2023-02-28T13:16:02;8.40;93.50
5086;DHT22;4715;51.660;7.082;2023-02-28T13:18:30;8.70;93.60
5086;DHT22;4715;51.660;7.082;2023-02-28T13:20:53;8.90;94.00
5086;DHT22;4715;51.660;7.082;2023-02-28T13:23:37;9.20;94.30
5086;DHT22;4715;51.660;7.082;2023-02-28T13:26:00;9.60;94.30
5086;DHT22;4715;51.660;7.082;2023-02-28T13:31:27;10.20;93.70
5086;DHT22;4715;51.660;7.082;2023-02-28T13:34:13;10.50;93.70
5086;DHT22;4715;51.660;7.082;2023-02-28T13:36:35;10.60;92.20
5086;DHT22;4715;51.660;7.082;2023-02-28T13:38:58;10.50;92.10
5086;DHT22;4715;51.660;7.082;2023-02-28T13:41:55;10.50;92.10
5086;DHT22;4715;51.660;7.082;2023-02-28T13:44:19;10.40;91.40
5086;DHT22;4715;51.660;7.082;2023-02-28T13:47:20;10.20;91.20
5086;DHT22;4715;51.660;7.082;2023-02-28T13:49:47;10.00;91.10
5086;DHT22;4715;51.660;7.082;2023-02-28T13:52:16;9.70;91.40
5086;DHT22;4715;51.660;7.082;2023-02-28T13:54:50;9.60;91.40
5086;DHT22;4715;51.660;7.082;2023-02-28T13:57:26;9.40;91.70
5086;DHT22;4715;51.660;7.082;2023-02-28T14:00:00;9.20;91.50
5086;DHT22;4715;51.660;7.082;2023-02-28T14:02:42;9.00;92.00
5086;DHT22;4715;51.660;7.082;2023-02-28T14:05:13;9.20;92.40
5086;DHT22;4715;51.660;7.082;2023-02-28T14:07:41;9.30;91.90
5086;DHT22;4715;51.660;7.082;2023-02-28T14:10:07;9.20;91.80
5086;DHT22;4715;51.660;7.082;2023-02-28T14:13:03;9.40;92.30
5086;DHT22;4715;51.660;7.082;2023-02-28T14:15:49;9.90;92.70
5086;DHT22;4715;51.660;7.082;2023-02-28T14:18:21;10.30;91.50
5086;DHT22;4715;51.660;7.082;2023-02-28T14:20:46;10.70;91.40
5086;DHT22;4715;51.660;7.082;2023-02-28T14:23:18;11.00;91.10
5086;DHT22;4715;51.660;7.082;2023-02-28T14:25:49;11.40;90.60
5086;DHT22;4715;51.660;7.082;2023-02-28T14:28:25;11.60;90.60
5086;DHT22;4715;51.660;7.082;2023-02-28T14:31:07;12.10;90.80
5086;DHT22;4715;51.660;7.082;2023-02-28T14:33:42;12.30;88.90
5086;DHT22;4715;51.660;7.082;2023-02-28T14:36:18;12.40;89.70
5086;DHT22;4715;51.660;7.082;2023-02-28T14:38:44;12.70;87.90
5086;DHT22;4715;51.660;7.082;2023-02-28T14:41:14;12.80;87.40
5086;DHT22;4715;51.660;7.082;2023-02-28T14:43:48;13.10;86.10
5086;DHT22;4715;51.660;7.082;2023-02-28T14:46:12;13.30;85.60
5086;DHT22;4715;51.660;7.082;2023-02-28T14:48:35;13.40;83.20
5086;DHT22;4715;51.660;7.082;2023-02-28T14:51:00;13.50;82.70
5086;DHT22;4715;51.660;7.082;2023-02-28T14:53:27;13.40;81.40
5086;DHT22;4715;51.660;7.082;2023-02-28T14:55:49;13.40;79.20
5086;DHT22;4715;51.660;7.082;2023-02-28T14:58:22;13.30;79.60
5086;DHT22;4715;51.660;7.082;2023-02-28T15:00:47;13.40;79.70
5086;DHT22;4715;51.660;7.082;2023-02-28T15:03:19;13.50;80.60
5086;DHT22;4715;51.660;7.082;2023-02-28T15:05:51;13.50;78.30
5086;DHT22;4715;51.660;7.082;2023-02-28T15:08:15;13.60;78.60
5086;DHT22;4715;51.660;7.082;2023-02-28T15:10:39;13.50;77.60
5086;DHT22;4715;51.660;7.082;2023-02-28T15:13:05;13.60;77.60
5086;DHT22;4715;51.660;7.082;2023-02-28T15:15:40;13.80;77.90
5086;DHT22;4715;51.660;7.082;2023-02-28T15:18:05;14.10;77.90
5086;DHT22;4715;51.660;7.082;2023-02-28T15:20:29;14.60;78.90
5086;DHT22;4715;51.660;7.082;2023-02-28T15:22:52;15.10;79.10
5086;DHT22;4715;51.660;7.082;2023-02-28T15:25:20;15.60;78.90
5086;DHT22;4715;51.660;7.082;2023-02-28T15:27:47;16.00;76.80
5086;DHT22;4715;51.660;7.082;2023-02-28T15:30:15;16.10;75.60
5086;DHT22;4715;51.660;7.082;2023-02-28T15:32:39;16.20;75.30
5086;DHT22;4715;51.660;7.082;2023-02-28T15:35:19;16.30;74.30
5086;DHT22;4715;51.660;7.082;2023-02-28T15:37:47;16.40;73.10
5086;DHT22;4715;51.660;7.082;2023-02-28T15:40:16;16.30;72.20
5086;DHT22;4715;51.660;7.082;2023-02-28T15:42:38;16.30;72.50
5086;DHT22;4715;51.660;7.082;2023-02-28T15:45:01;16.20;70.70
5086;DHT22;4715;51.660;7.082;2023-02-28T15:47:25;16.10;70.20
5086;DHT22;4715;51.660;7.082;2023-02-28T15:49:49;15.90;69.30
5086;DHT22;4715;51.660;7.082;2023-02-28T15:52:16;15.60;69.10
5086;DHT22;4715;51.660;7.082;2023-02-28T15:54:39;15.50;69.30
5086;DHT22;4715;51.660;7.082;2023-02-28T15:57:04;15.40;69.00
5086;DHT22;4715;51.660;7.082;2023-02-28T15:59:30;15.20;69.00
5086;DHT22;4715;51.660;7.082;2023-02-28T16:02:14;15.30;70.00
5086;DHT22;4715;51.660;7.082;2023-02-28T16:04:36;15.40;69.30
5086;DHT22;4715;51.660;7.082;2023-02-28T16:07:03;15.40;69.80
5086;DHT22;4715;51.660;7.082;2023-02-28T16:09:25;15.70;70.10
5086;DHT22;4715;51.660;7.082;2023-02-28T16:11:50;15.90;69.80
5086;DHT22;4715;51.660;7.082;2023-02-28T16:14:16;16.10;69.10
5086;DHT22;4715;51.660;7.082;2023-02-28T16:16:43;16.00;68.30
5086;DHT22;4715;51.660;7.082;2023-02-28T16:19:07;15.80;68.10
5086;DHT22;4715;51.660;7.082;2023-02-28T16:21:29;15.50;67.90
5086;DHT22;4715;51.660;7.082;2023-02-28T16:23:51;15.30;68.00
5086;DHT22;4715;51.660;7.082;2023-02-28T16:26:20;15.20;68.00